Terminal Aerodrome Forecast
Issued by NWS

Home | Current Version | Previous Version | Graphics & Text | Print | Product List | Glossary On
Versions: 1 2 3 4 5 6 7 8 9 10 11 12 13 14 15 16 17
215
FTUS43 KMPX 241130
TAFAXN
TAF
KAXN 241130Z 2412/2512 02012KT P6SM OVC090
     FM241300 02015KT P6SM VCSH OVC060
     FM241700 01013KT P6SM VCSH BKN050
     FM241800 36010KT P6SM BKN100
     FM242100 36009KT P6SM SCT250
     FM250800 04004KT P6SM SKC=

USA.gov is the U.S. government's official web portal to all federal, state and local government web resources and services.